Fountainhead — ZCTU3 — position and weather

sailwx.info

Track history (hours):
 
Tides and Currents Weather Stations Pressure Air Temp Water Temp Dewpoint Dewpoint Depression Visibility Wind Speed Wind Dir Waves Ship Positions

Fountainhead

Last reported at 2016-Sep-08 13:30 UTC. Time now 2016-Sep-28 22:14 UTC.
Position N 30°23' W 081°28'.
Warning: this ship's position is 20 days out of date.

Length 85 m; draft 4.4 m.

Type: Pleasure craft. MMSI: 319028100.

Date/timePositionNaut miles runAvg speedWind from/ knotsBaromVisibWave heightAir tempDewpointWater temp
2016-Sep-08 13:30N 30°23' W 081°28'  
2016-Sep-02 19:34N 26°45' W 079°52'1514.5
2016-Sep-02 18:33N 26°30' W 079°52'1515.3
2016-Sep-02 17:33N 26°15' W 079°53'1716.5
2016-Sep-02 16:33N 25°59' W 079°59'1514.7
2016-Sep-02 15:33N 25°46' W 080°06'5 4.4
2016-Sep-02 14:31N 25°47' W 080°11'0 0.0
2016-Sep-02 13:31N 25°47' W 080°11'0 0.0
2016-Sep-02 12:31N 25°47' W 080°11'0 0.0
2016-Sep-02 11:28N 25°47' W 080°11'0 0.0
2016-Sep-02 10:31N 25°47' W 080°11'0 0.0
2016-Sep-02 09:34N 25°47' W 080°11'0 0.0
2016-Sep-02 08:34N 25°47' W 080°11'0 0.0
2016-Sep-02 07:30N 25°47' W 080°11'0 0.0
2016-Sep-02 06:31N 25°47' W 080°11'0 0.0
2016-Sep-02 05:31N 25°47' W 080°11'0 0.0
2016-Sep-02 04:31N 25°47' W 080°11'0 0.0
2016-Sep-02 03:31N 25°47' W 080°11'0 0.0
2016-Sep-02 02:34N 25°47' W 080°11'0 0.0
2016-Sep-02 01:31N 25°47' W 080°11'0 0.0
2016-Sep-02 00:31N 25°47' W 080°11'0 0.0
2016-Sep-01 23:30N 25°47' W 080°11'0 0.0
2016-Sep-01 22:34N 25°47' W 080°11'0 0.0
2016-Sep-01 21:34N 25°47' W 080°11'0 0.0
2016-Sep-01 20:30N 25°47' W 080°11'0 0.0
2016-Sep-01 19:34N 25°47' W 080°11'0 0.0
2016-Sep-01 18:31N 25°47' W 080°11'0 0.0
2016-Sep-01 17:31N 25°47' W 080°11'0 0.0
2016-Sep-01 16:33N 25°47' W 080°11'0 0.0
2016-Sep-01 15:33N 25°47' W 080°11'0 0.0
2016-Sep-01 14:33N 25°47' W 080°11'0 0.0
2016-Sep-01 13:34N 25°47' W 080°11'0 0.0
2016-Sep-01 12:33N 25°47' W 080°11'0 0.0
2016-Sep-01 11:33N 25°47' W 080°11'0 0.0
2016-Sep-01 10:33N 25°47' W 080°11'0 0.0
2016-Sep-01 09:33N 25°47' W 080°11'0 0.0
2016-Sep-01 08:33N 25°47' W 080°11'0 0.0
2016-Sep-01 07:33N 25°47' W 080°11'0 0.0
2016-Sep-01 06:33N 25°47' W 080°11'0 0.0
2016-Sep-01 05:33N 25°47' W 080°11'0 0.0
2016-Sep-01 04:33N 25°47' W 080°11'0 0.0
2016-Sep-01 03:30N 25°47' W 080°11'0 0.0
2016-Sep-01 02:33N 25°47' W 080°11'0 0.0
2016-Sep-01 01:33N 25°47' W 080°11'0 0.0
2016-Sep-01 00:33N 25°47' W 080°11'0 0.0
2016-Aug-31 23:33N 25°47' W 080°11'0 0.0
2016-Aug-31 22:33N 25°47' W 080°11'0 0.0
2016-Aug-31 21:30N 25°47' W 080°11'0 0.0
2016-Aug-31 20:33N 25°47' W 080°11'2 1.6
2016-Aug-31 19:33N 25°46' W 080°09'1 1.2
2016-Aug-31 18:33N 25°46' W 080°11'0 0.0
2016-Aug-31 17:33N 25°46' W 080°11'0 0.0
2016-Aug-31 16:33N 25°46' W 080°11'0 0.0
2016-Aug-31 15:33N 25°46' W 080°11'0 0.0
2016-Aug-31 14:33N 25°46' W 080°11'0 0.2
2016-Aug-31 13:33N 25°46' W 080°10'1 0.8
2016-Aug-31 12:30N 25°47' W 080°11'0 0.0
2016-Aug-31 11:33N 25°47' W 080°11'0 0.0
2016-Aug-31 10:33N 25°47' W 080°11'0 0.0
2016-Aug-31 09:33N 25°47' W 080°11'0 0.0
2016-Aug-31 08:33N 25°47' W 080°11'0 0.0
2016-Aug-31 07:33N 25°47' W 080°11'0 0.0
2016-Aug-31 06:33N 25°47' W 080°11'0 0.0
2016-Aug-31 05:33N 25°47' W 080°11'0 0.0
2016-Aug-31 04:33N 25°47' W 080°11'0 0.0
2016-Aug-31 03:33N 25°47' W 080°11'0 0.0
2016-Aug-31 02:33N 25°47' W 080°11'0 0.0
2016-Aug-31 01:33N 25°47' W 080°11'0 0.0
2016-Aug-31 00:33N 25°47' W 080°11'0 0.0
2016-Aug-30 23:33N 25°47' W 080°11'0 0.0
2016-Aug-30 22:33N 25°47' W 080°11'0 0.0
2016-Aug-30 21:33N 25°47' W 080°11'0 0.0
2016-Aug-30 20:33N 25°47' W 080°11'0 0.0
2016-Aug-30 19:27N 25°47' W 080°11'0 0.0
2016-Aug-30 18:33N 25°47' W 080°11'0 0.0
2016-Aug-30 17:33N 25°47' W 080°11'0 0.0
2016-Aug-30 16:33N 25°47' W 080°11'0 0.0
2016-Aug-30 15:33N 25°47' W 080°11'0 0.0
2016-Aug-30 14:24N 25°47' W 080°11'0 0.0
2016-Aug-30 13:33N 25°47' W 080°11'0 0.0
2016-Aug-30 12:33N 25°47' W 080°11'0 0.0
2016-Aug-30 11:33N 25°47' W 080°11'0 0.0
2016-Aug-30 10:33N 25°47' W 080°11'0 0.0
2016-Aug-30 09:33N 25°47' W 080°11'0 0.0
2016-Aug-30 08:30N 25°47' W 080°11'0 0.0
2016-Aug-30 07:33N 25°47' W 080°11'0 0.0
2016-Aug-30 06:33N 25°47' W 080°11'0 0.0
2016-Aug-30 05:33N 25°47' W 080°11'0 0.0
2016-Aug-30 04:33N 25°47' W 080°11'0 0.0
2016-Aug-30 03:33N 25°47' W 080°11'0 0.0
2016-Aug-30 02:30N 25°47' W 080°11'0 0.0
2016-Aug-30 01:33N 25°47' W 080°11'0 0.0
2016-Aug-30 00:33N 25°47' W 080°11'0 0.0
2016-Aug-29 23:33N 25°47' W 080°11'0 0.0
2016-Aug-29 22:33N 25°47' W 080°11'0 0.0
2016-Aug-29 21:33N 25°47' W 080°11'0 0.0
2016-Aug-29 20:33N 25°47' W 080°11'0 0.0
2016-Aug-29 19:33N 25°47' W 080°11'0 0.0
2016-Aug-29 18:33N 25°47' W 080°11'0 0.0
2016-Aug-29 17:33N 25°47' W 080°11'0 0.0
2016-Aug-29 16:33N 25°47' W 080°11'0 0.0
2016-Aug-29 15:33N 25°47' W 080°11'0 0.0
2016-Aug-29 14:33N 25°47' W 080°11'0 0.0
2016-Aug-29 13:33N 25°47' W 080°11'  
Track history (hours):
 
Tides and Currents Weather Stations Pressure Air Temp Water Temp Dewpoint Dewpoint Depression Visibility Wind Speed Wind Dir Waves Ship Positions

Fountainhead

Last reported at 2016-Sep-08 13:30 UTC. Time now 2016-Sep-28 22:14 UTC.
Position N 30°23' W 081°28'.
Warning: this ship's position is 20 days out of date.

Length 85 m; draft 4.4 m.

Type: Pleasure craft. MMSI: 319028100.

Date/timePositionNaut miles runAvg speedWind from/ knotsBaromVisibWave heightAir tempDewpointWater temp
2016-Sep-08 13:30N 30°23' W 081°28'  
2016-Sep-02 19:34N 26°45' W 079°52'1514.5
2016-Sep-02 18:33N 26°30' W 079°52'1515.3
2016-Sep-02 17:33N 26°15' W 079°53'1716.5
2016-Sep-02 16:33N 25°59' W 079°59'1514.7
2016-Sep-02 15:33N 25°46' W 080°06'5 4.4
2016-Sep-02 14:31N 25°47' W 080°11'0 0.0
2016-Sep-02 13:31N 25°47' W 080°11'0 0.0
2016-Sep-02 12:31N 25°47' W 080°11'0 0.0
2016-Sep-02 11:28N 25°47' W 080°11'0 0.0
2016-Sep-02 10:31N 25°47' W 080°11'0 0.0
2016-Sep-02 09:34N 25°47' W 080°11'0 0.0
2016-Sep-02 08:34N 25°47' W 080°11'0 0.0
2016-Sep-02 07:30N 25°47' W 080°11'0 0.0
2016-Sep-02 06:31N 25°47' W 080°11'0 0.0
2016-Sep-02 05:31N 25°47' W 080°11'0 0.0
2016-Sep-02 04:31N 25°47' W 080°11'0 0.0
2016-Sep-02 03:31N 25°47' W 080°11'0 0.0
2016-Sep-02 02:34N 25°47' W 080°11'0 0.0
2016-Sep-02 01:31N 25°47' W 080°11'0 0.0
2016-Sep-02 00:31N 25°47' W 080°11'0 0.0
2016-Sep-01 23:30N 25°47' W 080°11'0 0.0
2016-Sep-01 22:34N 25°47' W 080°11'0 0.0
2016-Sep-01 21:34N 25°47' W 080°11'0 0.0
2016-Sep-01 20:30N 25°47' W 080°11'0 0.0
2016-Sep-01 19:34N 25°47' W 080°11'0 0.0
2016-Sep-01 18:31N 25°47' W 080°11'0 0.0
2016-Sep-01 17:31N 25°47' W 080°11'0 0.0
2016-Sep-01 16:33N 25°47' W 080°11'0 0.0
2016-Sep-01 15:33N 25°47' W 080°11'0 0.0
2016-Sep-01 14:33N 25°47' W 080°11'0 0.0
2016-Sep-01 13:34N 25°47' W 080°11'0 0.0
2016-Sep-01 12:33N 25°47' W 080°11'0 0.0
2016-Sep-01 11:33N 25°47' W 080°11'0 0.0
2016-Sep-01 10:33N 25°47' W 080°11'0 0.0
2016-Sep-01 09:33N 25°47' W 080°11'0 0.0
2016-Sep-01 08:33N 25°47' W 080°11'0 0.0
2016-Sep-01 07:33N 25°47' W 080°11'0 0.0
2016-Sep-01 06:33N 25°47' W 080°11'0 0.0
2016-Sep-01 05:33N 25°47' W 080°11'0 0.0
2016-Sep-01 04:33N 25°47' W 080°11'0 0.0
2016-Sep-01 03:30N 25°47' W 080°11'0 0.0
2016-Sep-01 02:33N 25°47' W 080°11'0 0.0
2016-Sep-01 01:33N 25°47' W 080°11'0 0.0
2016-Sep-01 00:33N 25°47' W 080°11'0 0.0
2016-Aug-31 23:33N 25°47' W 080°11'0 0.0
2016-Aug-31 22:33N 25°47' W 080°11'0 0.0
2016-Aug-31 21:30N 25°47' W 080°11'0 0.0
2016-Aug-31 20:33N 25°47' W 080°11'2 1.6
2016-Aug-31 19:33N 25°46' W 080°09'1 1.2
2016-Aug-31 18:33N 25°46' W 080°11'0 0.0
2016-Aug-31 17:33N 25°46' W 080°11'0 0.0
2016-Aug-31 16:33N 25°46' W 080°11'0 0.0
2016-Aug-31 15:33N 25°46' W 080°11'0 0.0
2016-Aug-31 14:33N 25°46' W 080°11'0 0.2
2016-Aug-31 13:33N 25°46' W 080°10'1 0.8
2016-Aug-31 12:30N 25°47' W 080°11'0 0.0
2016-Aug-31 11:33N 25°47' W 080°11'0 0.0
2016-Aug-31 10:33N 25°47' W 080°11'0 0.0
2016-Aug-31 09:33N 25°47' W 080°11'0 0.0
2016-Aug-31 08:33N 25°47' W 080°11'0 0.0
2016-Aug-31 07:33N 25°47' W 080°11'0 0.0
2016-Aug-31 06:33N 25°47' W 080°11'0 0.0
2016-Aug-31 05:33N 25°47' W 080°11'0 0.0
2016-Aug-31 04:33N 25°47' W 080°11'0 0.0
2016-Aug-31 03:33N 25°47' W 080°11'0 0.0
2016-Aug-31 02:33N 25°47' W 080°11'0 0.0
2016-Aug-31 01:33N 25°47' W 080°11'0 0.0
2016-Aug-31 00:33N 25°47' W 080°11'0 0.0
2016-Aug-30 23:33N 25°47' W 080°11'0 0.0
2016-Aug-30 22:33N 25°47' W 080°11'0 0.0
2016-Aug-30 21:33N 25°47' W 080°11'0 0.0
2016-Aug-30 20:33N 25°47' W 080°11'0 0.0
2016-Aug-30 19:27N 25°47' W 080°11'0 0.0
2016-Aug-30 18:33N 25°47' W 080°11'0 0.0
2016-Aug-30 17:33N 25°47' W 080°11'0 0.0
2016-Aug-30 16:33N 25°47' W 080°11'0 0.0
2016-Aug-30 15:33N 25°47' W 080°11'0 0.0
2016-Aug-30 14:24N 25°47' W 080°11'0 0.0
2016-Aug-30 13:33N 25°47' W 080°11'0 0.0
2016-Aug-30 12:33N 25°47' W 080°11'0 0.0
2016-Aug-30 11:33N 25°47' W 080°11'0 0.0
2016-Aug-30 10:33N 25°47' W 080°11'0 0.0
2016-Aug-30 09:33N 25°47' W 080°11'0 0.0
2016-Aug-30 08:30N 25°47' W 080°11'0 0.0
2016-Aug-30 07:33N 25°47' W 080°11'0 0.0
2016-Aug-30 06:33N 25°47' W 080°11'0 0.0
2016-Aug-30 05:33N 25°47' W 080°11'0 0.0
2016-Aug-30 04:33N 25°47' W 080°11'0 0.0
2016-Aug-30 03:33N 25°47' W 080°11'0 0.0
2016-Aug-30 02:30N 25°47' W 080°11'0 0.0
2016-Aug-30 01:33N 25°47' W 080°11'0 0.0
2016-Aug-30 00:33N 25°47' W 080°11'0 0.0
2016-Aug-29 23:33N 25°47' W 080°11'0 0.0
2016-Aug-29 22:33N 25°47' W 080°11'0 0.0
2016-Aug-29 21:33N 25°47' W 080°11'0 0.0
2016-Aug-29 20:33N 25°47' W 080°11'0 0.0
2016-Aug-29 19:33N 25°47' W 080°11'0 0.0
2016-Aug-29 18:33N 25°47' W 080°11'0 0.0
2016-Aug-29 17:33N 25°47' W 080°11'0 0.0
2016-Aug-29 16:33N 25°47' W 080°11'0 0.0
2016-Aug-29 15:33N 25°47' W 080°11'0 0.0
2016-Aug-29 14:33N 25°47' W 080°11'0 0.0
2016-Aug-29 13:33N 25°47' W 080°11'  

Dump ship's entire track history